sensor_id;sensor_type;location;lat;lon;timestamp;P1;durP1;ratioP1;P2;durP2;ratioP2
24407;SDS011;12542;50.924;4.516;2023-04-08T00:02:10;16.35;;;5.10;;
24407;SDS011;12542;50.924;4.516;2023-04-08T00:04:36;18.05;;;5.57;;
24407;SDS011;12542;50.924;4.516;2023-04-08T00:07:01;20.83;;;5.43;;
24407;SDS011;12542;50.924;4.516;2023-04-08T00:09:27;18.27;;;5.82;;
24407;SDS011;12542;50.924;4.516;2023-04-08T00:11:53;18.05;;;5.80;;
24407;SDS011;12542;50.924;4.516;2023-04-08T00:14:18;19.52;;;6.05;;
24407;SDS011;12542;50.924;4.516;2023-04-08T00:16:44;19.15;;;6.00;;
24407;SDS011;12542;50.924;4.516;2023-04-08T00:19:10;16.15;;;5.25;;
24407;SDS011;12542;50.924;4.516;2023-04-08T00:21:36;21.33;;;6.53;;
24407;SDS011;12542;50.924;4.516;2023-04-08T00:24:04;17.83;;;5.70;;
24407;SDS011;12542;50.924;4.516;2023-04-08T00:26:35;16.10;;;5.78;;
24407;SDS011;12542;50.924;4.516;2023-04-08T00:29:01;21.73;;;6.18;;
24407;SDS011;12542;50.924;4.516;2023-04-08T00:31:27;16.48;;;5.88;;
24407;SDS011;12542;50.924;4.516;2023-04-08T00:33:53;19.90;;;6.03;;
24407;SDS011;12542;50.924;4.516;2023-04-08T00:36:18;16.23;;;6.65;;
24407;SDS011;12542;50.924;4.516;2023-04-08T00:38:44;14.30;;;5.75;;
24407;SDS011;12542;50.924;4.516;2023-04-08T00:41:10;16.90;;;5.50;;
24407;SDS011;12542;50.924;4.516;2023-04-08T00:43:36;15.02;;;6.63;;
24407;SDS011;12542;50.924;4.516;2023-04-08T00:46:01;21.08;;;6.03;;
24407;SDS011;12542;50.924;4.516;2023-04-08T00:48:28;21.10;;;6.82;;
24407;SDS011;12542;50.924;4.516;2023-04-08T00:50:55;26.92;;;6.93;;
24407;SDS011;12542;50.924;4.516;2023-04-08T00:53:21;17.63;;;6.63;;
24407;SDS011;12542;50.924;4.516;2023-04-08T00:55:47;16.30;;;6.25;;
24407;SDS011;12542;50.924;4.516;2023-04-08T00:58:12;19.65;;;6.15;;
24407;SDS011;12542;50.924;4.516;2023-04-08T01:00:39;24.10;;;7.35;;
24407;SDS011;12542;50.924;4.516;2023-04-08T01:03:13;16.08;;;6.55;;
24407;SDS011;12542;50.924;4.516;2023-04-08T01:06:06;25.13;;;5.85;;
24407;SDS011;12542;50.924;4.516;2023-04-08T01:08:52;18.92;;;6.40;;
24407;SDS011;12542;50.924;4.516;2023-04-08T01:11:18;22.63;;;6.60;;
24407;SDS011;12542;50.924;4.516;2023-04-08T01:13:46;20.88;;;6.63;;
24407;SDS011;12542;50.924;4.516;2023-04-08T01:16:15;17.83;;;7.22;;
24407;SDS011;12542;50.924;4.516;2023-04-08T01:18:42;14.95;;;5.95;;
24407;SDS011;12542;50.924;4.516;2023-04-08T01:21:09;16.55;;;6.68;;
24407;SDS011;12542;50.924;4.516;2023-04-08T01:23:43;20.20;;;6.88;;
24407;SDS011;12542;50.924;4.516;2023-04-08T01:26:11;19.70;;;6.47;;
24407;SDS011;12542;50.924;4.516;2023-04-08T01:28:45;20.67;;;7.18;;
24407;SDS011;12542;50.924;4.516;2023-04-08T01:31:15;24.27;;;8.07;;
24407;SDS011;12542;50.924;4.516;2023-04-08T01:33:42;15.55;;;6.72;;
24407;SDS011;12542;50.924;4.516;2023-04-08T01:36:11;19.40;;;6.75;;
24407;SDS011;12542;50.924;4.516;2023-04-08T01:38:39;19.50;;;6.88;;
24407;SDS011;12542;50.924;4.516;2023-04-08T01:41:06;22.23;;;7.63;;
24407;SDS011;12542;50.924;4.516;2023-04-08T01:43:35;20.40;;;7.07;;
24407;SDS011;12542;50.924;4.516;2023-04-08T01:46:04;25.27;;;7.40;;
24407;SDS011;12542;50.924;4.516;2023-04-08T01:48:32;25.05;;;7.70;;
24407;SDS011;12542;50.924;4.516;2023-04-08T01:50:58;20.67;;;7.88;;
24407;SDS011;12542;50.924;4.516;2023-04-08T01:53:25;25.25;;;7.20;;
24407;SDS011;12542;50.924;4.516;2023-04-08T01:55:52;20.50;;;8.25;;
24407;SDS011;12542;50.924;4.516;2023-04-08T01:58:22;24.40;;;8.18;;
24407;SDS011;12542;50.924;4.516;2023-04-08T02:00:50;25.95;;;8.05;;
24407;SDS011;12542;50.924;4.516;2023-04-08T02:03:18;22.88;;;7.80;;
24407;SDS011;12542;50.924;4.516;2023-04-08T02:05:46;21.42;;;8.68;;
24407;SDS011;12542;50.924;4.516;2023-04-08T02:08:12;25.08;;;7.72;;
24407;SDS011;12542;50.924;4.516;2023-04-08T02:10:38;28.92;;;7.75;;
24407;SDS011;12542;50.924;4.516;2023-04-08T02:13:03;24.38;;;8.65;;
24407;SDS011;12542;50.924;4.516;2023-04-08T02:15:32;26.40;;;8.80;;
24407;SDS011;12542;50.924;4.516;2023-04-08T02:18:21;24.92;;;9.35;;
24407;SDS011;12542;50.924;4.516;2023-04-08T02:20:56;26.10;;;8.85;;
24407;SDS011;12542;50.924;4.516;2023-04-08T02:23:35;27.88;;;8.95;;
24407;SDS011;12542;50.924;4.516;2023-04-08T02:26:03;24.75;;;8.82;;
24407;SDS011;12542;50.924;4.516;2023-04-08T02:28:36;23.20;;;8.45;;
24407;SDS011;12542;50.924;4.516;2023-04-08T02:31:10;23.77;;;8.20;;
24407;SDS011;12542;50.924;4.516;2023-04-08T02:33:40;28.38;;;8.82;;
24407;SDS011;12542;50.924;4.516;2023-04-08T02:36:07;23.35;;;8.70;;
24407;SDS011;12542;50.924;4.516;2023-04-08T02:38:35;21.58;;;8.68;;
24407;SDS011;12542;50.924;4.516;2023-04-08T02:41:01;23.92;;;9.77;;
24407;SDS011;12542;50.924;4.516;2023-04-08T02:43:26;20.83;;;8.48;;
24407;SDS011;12542;50.924;4.516;2023-04-08T02:45:59;23.23;;;8.95;;
24407;SDS011;12542;50.924;4.516;2023-04-08T02:48:27;24.75;;;10.88;;
24407;SDS011;12542;50.924;4.516;2023-04-08T02:50:53;25.10;;;9.63;;
24407;SDS011;12542;50.924;4.516;2023-04-08T02:53:19;29.52;;;9.32;;
24407;SDS011;12542;50.924;4.516;2023-04-08T02:55:46;27.83;;;9.57;;
24407;SDS011;12542;50.924;4.516;2023-04-08T02:58:11;22.63;;;9.68;;
24407;SDS011;12542;50.924;4.516;2023-04-08T03:00:37;23.00;;;9.80;;
24407;SDS011;12542;50.924;4.516;2023-04-08T03:03:03;19.33;;;8.88;;
24407;SDS011;12542;50.924;4.516;2023-04-08T03:05:30;28.95;;;10.63;;
24407;SDS011;12542;50.924;4.516;2023-04-08T03:07:57;25.75;;;9.90;;
24407;SDS011;12542;50.924;4.516;2023-04-08T03:10:22;24.60;;;9.55;;
24407;SDS011;12542;50.924;4.516;2023-04-08T03:12:48;26.92;;;10.25;;
24407;SDS011;12542;50.924;4.516;2023-04-08T03:15:14;29.20;;;10.90;;
24407;SDS011;12542;50.924;4.516;2023-04-08T03:17:40;31.75;;;11.45;;
24407;SDS011;12542;50.924;4.516;2023-04-08T03:20:06;22.67;;;10.43;;
24407;SDS011;12542;50.924;4.516;2023-04-08T03:22:32;23.85;;;10.52;;
24407;SDS011;12542;50.924;4.516;2023-04-08T03:24:58;21.35;;;10.30;;
24407;SDS011;12542;50.924;4.516;2023-04-08T03:27:24;27.30;;;10.23;;
24407;SDS011;12542;50.924;4.516;2023-04-08T03:29:50;26.73;;;10.75;;
24407;SDS011;12542;50.924;4.516;2023-04-08T03:32:17;21.45;;;10.07;;
24407;SDS011;12542;50.924;4.516;2023-04-08T03:34:42;30.42;;;11.27;;
24407;SDS011;12542;50.924;4.516;2023-04-08T03:37:08;25.13;;;10.70;;
24407;SDS011;12542;50.924;4.516;2023-04-08T03:39:34;28.88;;;11.25;;
24407;SDS011;12542;50.924;4.516;2023-04-08T03:42:02;31.70;;;12.73;;
24407;SDS011;12542;50.924;4.516;2023-04-08T03:44:28;24.80;;;11.38;;
24407;SDS011;12542;50.924;4.516;2023-04-08T03:46:54;24.25;;;11.40;;
24407;SDS011;12542;50.924;4.516;2023-04-08T03:49:19;26.42;;;10.68;;
24407;SDS011;12542;50.924;4.516;2023-04-08T03:51:45;29.98;;;13.07;;
24407;SDS011;12542;50.924;4.516;2023-04-08T03:54:11;31.92;;;12.48;;
24407;SDS011;12542;50.924;4.516;2023-04-08T03:56:36;27.60;;;12.60;;
24407;SDS011;12542;50.924;4.516;2023-04-08T03:59:02;29.75;;;12.85;;
24407;SDS011;12542;50.924;4.516;2023-04-08T04:01:28;27.13;;;12.90;;
24407;SDS011;12542;50.924;4.516;2023-04-08T04:03:56;32.30;;;13.43;;
24407;SDS011;12542;50.924;4.516;2023-04-08T04:06:22;29.67;;;11.93;;
24407;SDS011;12542;50.924;4.516;2023-04-08T04:08:50;31.73;;;14.20;;
24407;SDS011;12542;50.924;4.516;2023-04-08T04:11:18;33.53;;;13.32;;
24407;SDS011;12542;50.924;4.516;2023-04-08T04:13:45;27.60;;;13.48;;
24407;SDS011;12542;50.924;4.516;2023-04-08T04:16:11;31.70;;;13.68;;
24407;SDS011;12542;50.924;4.516;2023-04-08T04:18:36;35.05;;;13.43;;
24407;SDS011;12542;50.924;4.516;2023-04-08T04:21:05;31.25;;;14.05;;
24407;SDS011;12542;50.924;4.516;2023-04-08T04:23:31;34.90;;;14.73;;
24407;SDS011;12542;50.924;4.516;2023-04-08T04:25:57;38.35;;;13.25;;
24407;SDS011;12542;50.924;4.516;2023-04-08T04:28:23;30.60;;;13.05;;
24407;SDS011;12542;50.924;4.516;2023-04-08T04:30:48;33.42;;;13.00;;
24407;SDS011;12542;50.924;4.516;2023-04-08T04:33:16;39.78;;;13.98;;
24407;SDS011;12542;50.924;4.516;2023-04-08T04:35:42;29.80;;;14.18;;
24407;SDS011;12542;50.924;4.516;2023-04-08T04:38:08;26.30;;;13.38;;
24407;SDS011;12542;50.924;4.516;2023-04-08T04:40:37;28.25;;;13.02;;
24407;SDS011;12542;50.924;4.516;2023-04-08T04:43:05;36.95;;;14.50;;
24407;SDS011;12542;50.924;4.516;2023-04-08T04:45:31;30.92;;;13.88;;
24407;SDS011;12542;50.924;4.516;2023-04-08T04:47:56;34.85;;;14.27;;
24407;SDS011;12542;50.924;4.516;2023-04-08T04:50:22;33.28;;;13.85;;
24407;SDS011;12542;50.924;4.516;2023-04-08T04:52:50;28.08;;;13.57;;
24407;SDS011;12542;50.924;4.516;2023-04-08T04:55:16;36.25;;;15.65;;
24407;SDS011;12542;50.924;4.516;2023-04-08T04:57:42;28.88;;;13.85;;
24407;SDS011;12542;50.924;4.516;2023-04-08T05:00:08;32.08;;;14.00;;
24407;SDS011;12542;50.924;4.516;2023-04-08T05:02:34;34.50;;;14.93;;
24407;SDS011;12542;50.924;4.516;2023-04-08T05:05:02;30.05;;;14.10;;
24407;SDS011;12542;50.924;4.516;2023-04-08T05:07:28;29.50;;;13.45;;
24407;SDS011;12542;50.924;4.516;2023-04-08T05:09:54;32.47;;;14.30;;
24407;SDS011;12542;50.924;4.516;2023-04-08T05:12:20;29.48;;;13.90;;
24407;SDS011;12542;50.924;4.516;2023-04-08T05:14:45;34.97;;;14.73;;
24407;SDS011;12542;50.924;4.516;2023-04-08T05:17:11;34.50;;;13.35;;
24407;SDS011;12542;50.924;4.516;2023-04-08T05:19:37;33.28;;;13.38;;
24407;SDS011;12542;50.924;4.516;2023-04-08T05:22:03;34.67;;;13.30;;
24407;SDS011;12542;50.924;4.516;2023-04-08T05:24:29;35.92;;;14.45;;
24407;SDS011;12542;50.924;4.516;2023-04-08T05:26:54;32.00;;;13.57;;
24407;SDS011;12542;50.924;4.516;2023-04-08T05:29:22;34.58;;;14.30;;
24407;SDS011;12542;50.924;4.516;2023-04-08T05:31:48;33.00;;;14.70;;
24407;SDS011;12542;50.924;4.516;2023-04-08T05:34:14;27.05;;;13.80;;
24407;SDS011;12542;50.924;4.516;2023-04-08T05:36:43;34.80;;;13.80;;
24407;SDS011;12542;50.924;4.516;2023-04-08T05:39:08;28.85;;;13.50;;
24407;SDS011;12542;50.924;4.516;2023-04-08T05:41:34;32.90;;;12.70;;
24407;SDS011;12542;50.924;4.516;2023-04-08T05:44:00;29.15;;;13.52;;
24407;SDS011;12542;50.924;4.516;2023-04-08T05:46:26;32.53;;;13.98;;
24407;SDS011;12542;50.924;4.516;2023-04-08T05:48:51;31.10;;;14.27;;
24407;SDS011;12542;50.924;4.516;2023-04-08T05:51:17;30.38;;;14.40;;
24407;SDS011;12542;50.924;4.516;2023-04-08T05:53:46;29.63;;;13.32;;
24407;SDS011;12542;50.924;4.516;2023-04-08T05:56:11;34.40;;;16.02;;
24407;SDS011;12542;50.924;4.516;2023-04-08T05:58:37;30.65;;;14.70;;
24407;SDS011;12542;50.924;4.516;2023-04-08T06:01:03;32.25;;;14.57;;
24407;SDS011;12542;50.924;4.516;2023-04-08T06:03:30;34.53;;;14.57;;
24407;SDS011;12542;50.924;4.516;2023-04-08T06:05:58;30.83;;;13.60;;
24407;SDS011;12542;50.924;4.516;2023-04-08T06:08:24;30.95;;;15.02;;
24407;SDS011;12542;50.924;4.516;2023-04-08T06:10:50;36.75;;;14.32;;
24407;SDS011;12542;50.924;4.516;2023-04-08T06:13:16;32.92;;;14.73;;
24407;SDS011;12542;50.924;4.516;2023-04-08T06:15:44;35.78;;;15.10;;
24407;SDS011;12542;50.924;4.516;2023-04-08T06:18:09;30.52;;;14.30;;
24407;SDS011;12542;50.924;4.516;2023-04-08T06:20:35;29.50;;;14.55;;
24407;SDS011;12542;50.924;4.516;2023-04-08T06:23:01;37.40;;;14.93;;
24407;SDS011;12542;50.924;4.516;2023-04-08T06:25:26;30.67;;;15.23;;
24407;SDS011;12542;50.924;4.516;2023-04-08T06:27:52;40.70;;;15.93;;
24407;SDS011;12542;50.924;4.516;2023-04-08T06:30:18;36.33;;;15.63;;
24407;SDS011;12542;50.924;4.516;2023-04-08T06:32:43;29.50;;;15.02;;
24407;SDS011;12542;50.924;4.516;2023-04-08T06:35:11;39.08;;;16.13;;
24407;SDS011;12542;50.924;4.516;2023-04-08T06:37:37;34.55;;;15.63;;
24407;SDS011;12542;50.924;4.516;2023-04-08T06:40:03;34.30;;;15.95;;
24407;SDS011;12542;50.924;4.516;2023-04-08T06:42:30;32.13;;;15.95;;
24407;SDS011;12542;50.924;4.516;2023-04-08T06:44:56;34.20;;;15.98;;
24407;SDS011;12542;50.924;4.516;2023-04-08T06:47:22;31.88;;;16.58;;
24407;SDS011;12542;50.924;4.516;2023-04-08T06:49:48;29.42;;;15.23;;
24407;SDS011;12542;50.924;4.516;2023-04-08T06:52:14;31.42;;;16.02;;
24407;SDS011;12542;50.924;4.516;2023-04-08T06:54:41;29.52;;;15.60;;
24407;SDS011;12542;50.924;4.516;2023-04-08T06:57:06;34.22;;;15.40;;
24407;SDS011;12542;50.924;4.516;2023-04-08T06:59:32;28.00;;;15.13;;
24407;SDS011;12542;50.924;4.516;2023-04-08T07:01:58;34.53;;;14.98;;
24407;SDS011;12542;50.924;4.516;2023-04-08T07:04:24;30.48;;;14.07;;
24407;SDS011;12542;50.924;4.516;2023-04-08T07:06:50;29.30;;;14.35;;
24407;SDS011;12542;50.924;4.516;2023-04-08T07:09:16;23.42;;;14.40;;
24407;SDS011;12542;50.924;4.516;2023-04-08T07:11:42;26.45;;;14.10;;
24407;SDS011;12542;50.924;4.516;2023-04-08T07:14:08;26.02;;;13.63;;
24407;SDS011;12542;50.924;4.516;2023-04-08T07:16:33;28.10;;;14.45;;
24407;SDS011;12542;50.924;4.516;2023-04-08T07:18:59;26.52;;;13.80;;
24407;SDS011;12542;50.924;4.516;2023-04-08T07:21:26;31.92;;;14.07;;
24407;SDS011;12542;50.924;4.516;2023-04-08T07:23:54;24.77;;;14.07;;
24407;SDS011;12542;50.924;4.516;2023-04-08T07:26:22;23.38;;;12.13;;
24407;SDS011;12542;50.924;4.516;2023-04-08T07:28:48;25.40;;;13.48;;
24407;SDS011;12542;50.924;4.516;2023-04-08T07:31:16;32.13;;;13.82;;
24407;SDS011;12542;50.924;4.516;2023-04-08T07:33:43;26.38;;;12.27;;
24407;SDS011;12542;50.924;4.516;2023-04-08T07:36:10;21.83;;;12.20;;
24407;SDS011;12542;50.924;4.516;2023-04-08T07:38:37;24.30;;;12.20;;
24407;SDS011;12542;50.924;4.516;2023-04-08T07:41:03;22.13;;;10.95;;
24407;SDS011;12542;50.924;4.516;2023-04-08T07:43:30;19.30;;;11.40;;
24407;SDS011;12542;50.924;4.516;2023-04-08T07:45:59;26.38;;;12.93;;
24407;SDS011;12542;50.924;4.516;2023-04-08T07:48:29;20.13;;;12.40;;
24407;SDS011;12542;50.924;4.516;2023-04-08T07:50:55;22.73;;;10.85;;
24407;SDS011;12542;50.924;4.516;2023-04-08T07:53:21;26.23;;;12.52;;
24407;SDS011;12542;50.924;4.516;2023-04-08T07:55:50;25.75;;;12.73;;
24407;SDS011;12542;50.924;4.516;2023-04-08T07:58:16;24.77;;;12.50;;
24407;SDS011;12542;50.924;4.516;2023-04-08T08:00:42;18.00;;;10.50;;
24407;SDS011;12542;50.924;4.516;2023-04-08T08:03:08;24.33;;;13.57;;
24407;SDS011;12542;50.924;4.516;2023-04-08T08:05:34;25.13;;;12.82;;
24407;SDS011;12542;50.924;4.516;2023-04-08T08:08:01;24.67;;;12.13;;
24407;SDS011;12542;50.924;4.516;2023-04-08T08:10:27;27.70;;;12.50;;
24407;SDS011;12542;50.924;4.516;2023-04-08T08:12:52;19.77;;;12.63;;
24407;SDS011;12542;50.924;4.516;2023-04-08T08:15:18;25.40;;;11.63;;
24407;SDS011;12542;50.924;4.516;2023-04-08T08:17:44;21.55;;;11.05;;
24407;SDS011;12542;50.924;4.516;2023-04-08T08:20:10;22.13;;;11.55;;
24407;SDS011;12542;50.924;4.516;2023-04-08T08:22:36;22.27;;;11.88;;
24407;SDS011;12542;50.924;4.516;2023-04-08T08:25:04;22.92;;;11.23;;
24407;SDS011;12542;50.924;4.516;2023-04-08T08:27:30;18.20;;;9.93;;
24407;SDS011;12542;50.924;4.516;2023-04-08T08:29:58;18.13;;;10.63;;
24407;SDS011;12542;50.924;4.516;2023-04-08T08:32:24;19.67;;;12.93;;
24407;SDS011;12542;50.924;4.516;2023-04-08T08:34:49;23.10;;;12.18;;
24407;SDS011;12542;50.924;4.516;2023-04-08T08:37:15;19.95;;;11.93;;
24407;SDS011;12542;50.924;4.516;2023-04-08T08:39:41;18.33;;;9.85;;
24407;SDS011;12542;50.924;4.516;2023-04-08T08:42:17;17.52;;;9.52;;
24407;SDS011;12542;50.924;4.516;2023-04-08T08:44:46;22.35;;;11.15;;
24407;SDS011;12542;50.924;4.516;2023-04-08T08:47:12;21.05;;;11.15;;
24407;SDS011;12542;50.924;4.516;2023-04-08T08:49:38;25.70;;;12.32;;
24407;SDS011;12542;50.924;4.516;2023-04-08T08:52:04;25.27;;;12.98;;
24407;SDS011;12542;50.924;4.516;2023-04-08T08:54:30;23.83;;;13.23;;
24407;SDS011;12542;50.924;4.516;2023-04-08T08:56:56;25.35;;;13.85;;
24407;SDS011;12542;50.924;4.516;2023-04-08T08:59:24;27.27;;;14.50;;
24407;SDS011;12542;50.924;4.516;2023-04-08T09:01:50;29.85;;;15.15;;
24407;SDS011;12542;50.924;4.516;2023-04-08T09:04:19;30.45;;;16.88;;
24407;SDS011;12542;50.924;4.516;2023-04-08T09:06:47;38.55;;;17.52;;
24407;SDS011;12542;50.924;4.516;2023-04-08T09:09:18;32.80;;;15.85;;
24407;SDS011;12542;50.924;4.516;2023-04-08T09:11:45;31.40;;;16.02;;
24407;SDS011;12542;50.924;4.516;2023-04-08T09:14:21;30.35;;;15.50;;
24407;SDS011;12542;50.924;4.516;2023-04-08T09:16:47;30.05;;;16.10;;
24407;SDS011;12542;50.924;4.516;2023-04-08T09:19:13;30.27;;;16.85;;
24407;SDS011;12542;50.924;4.516;2023-04-08T09:21:39;30.65;;;15.57;;
24407;SDS011;12542;50.924;4.516;2023-04-08T09:24:05;28.73;;;16.20;;
24407;SDS011;12542;50.924;4.516;2023-04-08T09:26:32;32.47;;;17.80;;
24407;SDS011;12542;50.924;4.516;2023-04-08T09:29:05;31.88;;;16.52;;
24407;SDS011;12542;50.924;4.516;2023-04-08T09:31:33;34.78;;;17.33;;
24407;SDS011;12542;50.924;4.516;2023-04-08T09:34:23;31.75;;;16.58;;
24407;SDS011;12542;50.924;4.516;2023-04-08T09:36:51;32.22;;;17.20;;
24407;SDS011;12542;50.924;4.516;2023-04-08T09:39:18;28.80;;;15.40;;
24407;SDS011;12542;50.924;4.516;2023-04-08T09:41:47;30.50;;;16.02;;
24407;SDS011;12542;50.924;4.516;2023-04-08T09:44:15;32.90;;;16.13;;
24407;SDS011;12542;50.924;4.516;2023-04-08T09:49:26;25.20;;;14.65;;
24407;SDS011;12542;50.924;4.516;2023-04-08T09:55:05;32.30;;;15.25;;
24407;SDS011;12542;50.924;4.516;2023-04-08T10:00:14;25.25;;;14.82;;
24407;SDS011;12542;50.924;4.516;2023-04-08T10:05:40;25.08;;;13.65;;
24407;SDS011;12542;50.924;4.516;2023-04-08T10:08:06;18.63;;;10.98;;
24407;SDS011;12542;50.924;4.516;2023-04-08T10:10:37;17.45;;;9.23;;
24407;SDS011;12542;50.924;4.516;2023-04-08T10:13:05;17.27;;;9.45;;
24407;SDS011;12542;50.924;4.516;2023-04-08T10:15:32;16.90;;;10.68;;
24407;SDS011;12542;50.924;4.516;2023-04-08T10:22:58;12.00;;;6.70;;
24407;SDS011;12542;50.924;4.516;2023-04-08T10:25:28;13.27;;;8.15;;
24407;SDS011;12542;50.924;4.516;2023-04-08T10:27:56;14.23;;;7.78;;
24407;SDS011;12542;50.924;4.516;2023-04-08T10:32:54;16.25;;;8.18;;
24407;SDS011;12542;50.924;4.516;2023-04-08T10:35:31;12.20;;;7.78;;
24407;SDS011;12542;50.924;4.516;2023-04-08T10:38:00;13.95;;;8.35;;
24407;SDS011;12542;50.924;4.516;2023-04-08T10:40:26;12.20;;;7.95;;
24407;SDS011;12542;50.924;4.516;2023-04-08T10:42:56;13.95;;;7.10;;
24407;SDS011;12542;50.924;4.516;2023-04-08T10:45:22;13.07;;;7.03;;
24407;SDS011;12542;50.924;4.516;2023-04-08T10:47:49;12.50;;;6.97;;
24407;SDS011;12542;50.924;4.516;2023-04-08T10:50:15;11.57;;;7.65;;
24407;SDS011;12542;50.924;4.516;2023-04-08T10:52:49;18.08;;;7.75;;
24407;SDS011;12542;50.924;4.516;2023-04-08T10:55:25;12.95;;;7.40;;
24407;SDS011;12542;50.924;4.516;2023-04-08T11:00:26;17.83;;;8.63;;
24407;SDS011;12542;50.924;4.516;2023-04-08T11:03:03;19.15;;;9.90;;
24407;SDS011;12542;50.924;4.516;2023-04-08T11:05:31;22.98;;;11.52;;
24407;SDS011;12542;50.924;4.516;2023-04-08T11:08:00;18.80;;;11.95;;
24407;SDS011;12542;50.924;4.516;2023-04-08T11:10:26;24.13;;;15.63;;
24407;SDS011;12542;50.924;4.516;2023-04-08T11:12:56;22.63;;;13.23;;
24407;SDS011;12542;50.924;4.516;2023-04-08T11:15:25;25.95;;;15.07;;
24407;SDS011;12542;50.924;4.516;2023-04-08T11:17:54;22.55;;;14.10;;
24407;SDS011;12542;50.924;4.516;2023-04-08T11:20:22;22.95;;;13.35;;
24407;SDS011;12542;50.924;4.516;2023-04-08T11:22:49;23.17;;;13.25;;
24407;SDS011;12542;50.924;4.516;2023-04-08T11:25:15;22.55;;;14.10;;
24407;SDS011;12542;50.924;4.516;2023-04-08T11:27:42;16.35;;;11.70;;
24407;SDS011;12542;50.924;4.516;2023-04-08T11:30:09;21.52;;;10.82;;
24407;SDS011;12542;50.924;4.516;2023-04-08T11:32:36;18.58;;;10.82;;
24407;SDS011;12542;50.924;4.516;2023-04-08T11:35:06;18.60;;;10.50;;
24407;SDS011;12542;50.924;4.516;2023-04-08T11:37:41;14.85;;;9.25;;
24407;SDS011;12542;50.924;4.516;2023-04-08T11:42:33;15.30;;;9.13;;
24407;SDS011;12542;50.924;4.516;2023-04-08T11:44:59;18.65;;;10.95;;
24407;SDS011;12542;50.924;4.516;2023-04-08T11:47:31;18.88;;;11.05;;
24407;SDS011;12542;50.924;4.516;2023-04-08T11:49:58;15.38;;;9.40;;
24407;SDS011;12542;50.924;4.516;2023-04-08T11:55:32;17.17;;;10.07;;
24407;SDS011;12542;50.924;4.516;2023-04-08T11:58:04;15.27;;;10.48;;
24407;SDS011;12542;50.924;4.516;2023-04-08T12:00:30;14.88;;;9.43;;
24407;SDS011;12542;50.924;4.516;2023-04-08T12:02:57;19.77;;;10.25;;
24407;SDS011;12542;50.924;4.516;2023-04-08T12:05:22;17.83;;;9.50;;
24407;SDS011;12542;50.924;4.516;2023-04-08T12:07:48;15.15;;;10.07;;
24407;SDS011;12542;50.924;4.516;2023-04-08T12:10:14;18.98;;;10.32;;
24407;SDS011;12542;50.924;4.516;2023-04-08T12:12:40;18.52;;;10.60;;
24407;SDS011;12542;50.924;4.516;2023-04-08T12:15:06;19.27;;;10.38;;
24407;SDS011;12542;50.924;4.516;2023-04-08T12:17:36;18.52;;;11.65;;
24407;SDS011;12542;50.924;4.516;2023-04-08T12:20:03;17.27;;;10.07;;
24407;SDS011;12542;50.924;4.516;2023-04-08T12:22:32;16.20;;;11.18;;
24407;SDS011;12542;50.924;4.516;2023-04-08T12:24:58;20.48;;;11.55;;
24407;SDS011;12542;50.924;4.516;2023-04-08T12:27:23;21.73;;;11.52;;
24407;SDS011;12542;50.924;4.516;2023-04-08T12:29:51;16.25;;;10.63;;
24407;SDS011;12542;50.924;4.516;2023-04-08T12:32:17;20.20;;;11.43;;
24407;SDS011;12542;50.924;4.516;2023-04-08T12:34:43;18.92;;;11.55;;
24407;SDS011;12542;50.924;4.516;2023-04-08T12:37:08;19.60;;;11.25;;
24407;SDS011;12542;50.924;4.516;2023-04-08T12:39:34;15.85;;;10.10;;
24407;SDS011;12542;50.924;4.516;2023-04-08T12:42:00;15.98;;;10.75;;
24407;SDS011;12542;50.924;4.516;2023-04-08T12:44:26;16.23;;;9.95;;
24407;SDS011;12542;50.924;4.516;2023-04-08T12:46:51;14.43;;;10.25;;
24407;SDS011;12542;50.924;4.516;2023-04-08T12:49:17;17.33;;;10.55;;
24407;SDS011;12542;50.924;4.516;2023-04-08T12:51:43;18.85;;;11.75;;
24407;SDS011;12542;50.924;4.516;2023-04-08T12:54:08;20.80;;;12.65;;
24407;SDS011;12542;50.924;4.516;2023-04-08T12:56:34;19.27;;;12.85;;
24407;SDS011;12542;50.924;4.516;2023-04-08T12:59:00;19.65;;;12.02;;
24407;SDS011;12542;50.924;4.516;2023-04-08T13:01:28;18.75;;;11.82;;
24407;SDS011;12542;50.924;4.516;2023-04-08T13:03:54;21.88;;;11.88;;
24407;SDS011;12542;50.924;4.516;2023-04-08T13:06:20;17.50;;;11.35;;
24407;SDS011;12542;50.924;4.516;2023-04-08T13:08:46;20.48;;;10.93;;
24407;SDS011;12542;50.924;4.516;2023-04-08T13:11:12;19.63;;;11.30;;
24407;SDS011;12542;50.924;4.516;2023-04-08T13:13:37;19.00;;;11.63;;
24407;SDS011;12542;50.924;4.516;2023-04-08T13:16:03;19.52;;;12.73;;
24407;SDS011;12542;50.924;4.516;2023-04-08T13:18:29;23.63;;;14.35;;
24407;SDS011;12542;50.924;4.516;2023-04-08T13:20:55;23.25;;;14.05;;
24407;SDS011;12542;50.924;4.516;2023-04-08T13:23:22;21.67;;;13.07;;
24407;SDS011;12542;50.924;4.516;2023-04-08T13:25:47;25.90;;;14.43;;
24407;SDS011;12542;50.924;4.516;2023-04-08T13:28:13;23.05;;;13.55;;
24407;SDS011;12542;50.924;4.516;2023-04-08T13:30:39;22.27;;;13.75;;
24407;SDS011;12542;50.924;4.516;2023-04-08T13:33:05;22.65;;;12.65;;
24407;SDS011;12542;50.924;4.516;2023-04-08T13:35:31;23.50;;;13.38;;
24407;SDS011;12542;50.924;4.516;2023-04-08T13:37:58;22.33;;;13.27;;
24407;SDS011;12542;50.924;4.516;2023-04-08T13:40:24;21.48;;;12.98;;
24407;SDS011;12542;50.924;4.516;2023-04-08T13:42:51;22.38;;;13.23;;
24407;SDS011;12542;50.924;4.516;2023-04-08T13:45:17;20.15;;;12.10;;
24407;SDS011;12542;50.924;4.516;2023-04-08T13:47:44;24.08;;;13.38;;
24407;SDS011;12542;50.924;4.516;2023-04-08T13:50:10;20.27;;;12.10;;
24407;SDS011;12542;50.924;4.516;2023-04-08T13:52:35;18.50;;;12.00;;
24407;SDS011;12542;50.924;4.516;2023-04-08T13:55:01;20.20;;;12.82;;
24407;SDS011;12542;50.924;4.516;2023-04-08T13:57:27;21.77;;;12.95;;
24407;SDS011;12542;50.924;4.516;2023-04-08T13:59:53;20.50;;;13.05;;
24407;SDS011;12542;50.924;4.516;2023-04-08T14:02:22;20.10;;;13.32;;
24407;SDS011;12542;50.924;4.516;2023-04-08T14:04:48;20.38;;;12.27;;
24407;SDS011;12542;50.924;4.516;2023-04-08T14:07:14;20.33;;;12.57;;
24407;SDS011;12542;50.924;4.516;2023-04-08T14:09:40;21.65;;;12.98;;
24407;SDS011;12542;50.924;4.516;2023-04-08T14:12:05;20.55;;;12.32;;
24407;SDS011;12542;50.924;4.516;2023-04-08T14:14:31;21.70;;;13.13;;
24407;SDS011;12542;50.924;4.516;2023-04-08T14:16:57;22.50;;;14.20;;
24407;SDS011;12542;50.924;4.516;2023-04-08T14:19:23;20.73;;;13.40;;
24407;SDS011;12542;50.924;4.516;2023-04-08T14:21:49;21.73;;;13.32;;
24407;SDS011;12542;50.924;4.516;2023-04-08T14:24:14;22.75;;;13.45;;
24407;SDS011;12542;50.924;4.516;2023-04-08T14:26:40;19.42;;;13.05;;
24407;SDS011;12542;50.924;4.516;2023-04-08T14:29:06;20.15;;;13.45;;
24407;SDS011;12542;50.924;4.516;2023-04-08T14:31:33;24.08;;;14.55;;
24407;SDS011;12542;50.924;4.516;2023-04-08T14:33:59;23.63;;;13.75;;
24407;SDS011;12542;50.924;4.516;2023-04-08T14:36:25;23.48;;;14.20;;
24407;SDS011;12542;50.924;4.516;2023-04-08T14:38:52;25.02;;;14.82;;
24407;SDS011;12542;50.924;4.516;2023-04-08T14:41:18;22.95;;;13.55;;
24407;SDS011;12542;50.924;4.516;2023-04-08T14:43:45;24.23;;;15.40;;
24407;SDS011;12542;50.924;4.516;2023-04-08T14:46:11;24.85;;;13.90;;
24407;SDS011;12542;50.924;4.516;2023-04-08T14:48:37;22.55;;;14.63;;
24407;SDS011;12542;50.924;4.516;2023-04-08T14:51:02;25.40;;;16.48;;
24407;SDS011;12542;50.924;4.516;2023-04-08T14:53:28;24.42;;;15.52;;